Accueil
METAR-TAF:

METAR-TAF

Aéroports :

Pruniers

Romorantin, France

latitude: 47-19N, longitude: 001-41E, altitude: 85 m

Observation

Le bulletin a été fait il y a 29 minutes, à 02:00 UTC
Vent calme
Température -1°C
Humidité 100%
Pression 1027 hPa
Visibilité: 5000 m
Quelques nuages à une hauteur de 4500 ft
Nuages épars à une hauteur de 14000 ft
Nuages fragmentés à une hauteur de 18000 ft
brume

METAR: LFYR 240200Z AUTO 00000KT 5000 BR FEW045 SCT140 BKN180 M01/M01 Q1027

Heure: 03:29 (02:29 UTC)


TAF: absent

Observations et prévisions météorologiques de plus de 4000 aéroports (messages METAR et TAF).

Les stations disponibles sont représentées par des disques jaunes et rouges sur la carte.

Passer la souris dessus pour voir le nom de la station.

Cliquer dessus pour voir les observations et prévisions météorologiques.

Pour changer de carte: cliquez sur les boutons verts avec une croix noire pour zoomer, sur le bouton vert avec un tiret pour effectuer un zoom arrière, ou sur les flèches vertes pour les cartes adjacentes.


METAR-TAF: